sensor_id;sensor_type;location;lat;lon;timestamp;P1;durP1;ratioP1;P2;durP2;ratioP2
3259;SDS011;22469;48.150;14.004;2022-09-09T00:00:43;6.43;;;2.83;;
3259;SDS011;22469;48.150;14.004;2022-09-09T00:03:53;4.23;;;3.03;;
3259;SDS011;22469;48.150;14.004;2022-09-09T00:15:05;3.30;;;3.10;;
3259;SDS011;22469;48.150;14.004;2022-09-09T00:18:01;12.40;;;4.67;;
3259;SDS011;22469;48.150;14.004;2022-09-09T00:23:38;4.60;;;2.70;;
3259;SDS011;22469;48.150;14.004;2022-09-09T00:29:02;3.67;;;3.00;;
3259;SDS011;22469;48.150;14.004;2022-09-09T00:32:16;2.47;;;2.33;;
3259;SDS011;22469;48.150;14.004;2022-09-09T00:34:52;3.50;;;2.33;;
3259;SDS011;22469;48.150;14.004;2022-09-09T00:37:29;2.93;;;2.70;;
3259;SDS011;22469;48.150;14.004;2022-09-09T00:39:59;3.07;;;2.80;;
3259;SDS011;22469;48.150;14.004;2022-09-09T00:53:29;4.17;;;2.67;;
3259;SDS011;22469;48.150;14.004;2022-09-09T00:56:19;5.23;;;4.10;;
3259;SDS011;22469;48.150;14.004;2022-09-09T01:01:41;4.37;;;2.70;;
3259;SDS011;22469;48.150;14.004;2022-09-09T01:04:10;3.30;;;3.10;;
3259;SDS011;22469;48.150;14.004;2022-09-09T01:06:43;3.53;;;3.20;;
3259;SDS011;22469;48.150;14.004;2022-09-09T01:09:30;3.40;;;3.30;;
3259;SDS011;22469;48.150;14.004;2022-09-09T01:12:14;3.57;;;3.27;;
3259;SDS011;22469;48.150;14.004;2022-09-09T01:14:50;3.30;;;3.10;;
3259;SDS011;22469;48.150;14.004;2022-09-09T01:17:30;3.27;;;2.93;;
3259;SDS011;22469;48.150;14.004;2022-09-09T01:20:13;3.90;;;3.53;;
3259;SDS011;22469;48.150;14.004;2022-09-09T01:28:30;5.90;;;3.50;;
3259;SDS011;22469;48.150;14.004;2022-09-09T01:31:02;3.77;;;3.57;;
3259;SDS011;22469;48.150;14.004;2022-09-09T01:33:32;3.80;;;3.20;;
3259;SDS011;22469;48.150;14.004;2022-09-09T01:39:12;4.77;;;2.90;;
3259;SDS011;22469;48.150;14.004;2022-09-09T01:41:40;3.37;;;3.17;;
3259;SDS011;22469;48.150;14.004;2022-09-09T01:44:07;5.73;;;3.60;;
3259;SDS011;22469;48.150;14.004;2022-09-09T01:46:35;3.53;;;3.23;;
3259;SDS011;22469;48.150;14.004;2022-09-09T01:49:03;4.13;;;3.83;;
3259;SDS011;22469;48.150;14.004;2022-09-09T01:51:34;5.63;;;3.83;;
3259;SDS011;22469;48.150;14.004;2022-09-09T01:54:02;3.00;;;2.80;;
3259;SDS011;22469;48.150;14.004;2022-09-09T01:56:42;3.00;;;2.80;;
3259;SDS011;22469;48.150;14.004;2022-09-09T02:08:08;4.40;;;2.93;;
3259;SDS011;22469;48.150;14.004;2022-09-09T02:10:46;2.53;;;2.33;;
3259;SDS011;22469;48.150;14.004;2022-09-09T02:13:22;5.03;;;3.40;;
3259;SDS011;22469;48.150;14.004;2022-09-09T02:15:52;3.43;;;2.43;;
3259;SDS011;22469;48.150;14.004;2022-09-09T02:18:25;7.37;;;3.27;;
3259;SDS011;22469;48.150;14.004;2022-09-09T02:20:59;3.13;;;3.03;;
3259;SDS011;22469;48.150;14.004;2022-09-09T02:23:26;3.37;;;3.13;;
3259;SDS011;22469;48.150;14.004;2022-09-09T02:25:55;3.93;;;3.17;;
3259;SDS011;22469;48.150;14.004;2022-09-09T02:28:25;2.87;;;2.67;;
3259;SDS011;22469;48.150;14.004;2022-09-09T02:30:55;4.30;;;3.03;;
3259;SDS011;22469;48.150;14.004;2022-09-09T02:33:25;3.17;;;2.53;;
3259;SDS011;22469;48.150;14.004;2022-09-09T02:35:56;3.20;;;3.00;;
3259;SDS011;22469;48.150;14.004;2022-09-09T02:38:32;3.60;;;3.30;;
3259;SDS011;22469;48.150;14.004;2022-09-09T02:41:06;4.00;;;3.57;;
3259;SDS011;22469;48.150;14.004;2022-09-09T02:43:33;3.50;;;3.20;;
3259;SDS011;22469;48.150;14.004;2022-09-09T02:49:00;9.83;;;4.50;;
3259;SDS011;22469;48.150;14.004;2022-09-09T02:54:32;5.30;;;4.90;;
3259;SDS011;22469;48.150;14.004;2022-09-09T02:59:32;5.90;;;5.50;;
3259;SDS011;22469;48.150;14.004;2022-09-09T03:02:00;10.67;;;6.80;;
3259;SDS011;22469;48.150;14.004;2022-09-09T03:04:27;11.40;;;6.70;;
3259;SDS011;22469;48.150;14.004;2022-09-09T03:06:57;9.93;;;6.97;;
3259;SDS011;22469;48.150;14.004;2022-09-09T03:09:25;15.80;;;8.40;;
3259;SDS011;22469;48.150;14.004;2022-09-09T03:11:52;21.87;;;9.73;;
3259;SDS011;22469;48.150;14.004;2022-09-09T03:14:21;13.57;;;8.20;;
3259;SDS011;22469;48.150;14.004;2022-09-09T03:16:52;19.27;;;8.43;;
3259;SDS011;22469;48.150;14.004;2022-09-09T03:19:20;21.50;;;7.10;;
3259;SDS011;22469;48.150;14.004;2022-09-09T03:21:47;27.67;;;9.67;;
3259;SDS011;22469;48.150;14.004;2022-09-09T03:24:14;25.77;;;8.67;;
3259;SDS011;22469;48.150;14.004;2022-09-09T03:26:42;17.63;;;8.87;;
3259;SDS011;22469;48.150;14.004;2022-09-09T03:29:12;18.17;;;7.80;;
3259;SDS011;22469;48.150;14.004;2022-09-09T03:31:39;12.10;;;8.57;;
3259;SDS011;22469;48.150;14.004;2022-09-09T03:34:07;36.20;;;9.83;;
3259;SDS011;22469;48.150;14.004;2022-09-09T03:36:34;18.13;;;7.33;;
3259;SDS011;22469;48.150;14.004;2022-09-09T03:39:01;33.03;;;8.57;;
3259;SDS011;22469;48.150;14.004;2022-09-09T03:41:29;22.57;;;7.83;;
3259;SDS011;22469;48.150;14.004;2022-09-09T03:43:56;25.33;;;8.27;;
3259;SDS011;22469;48.150;14.004;2022-09-09T03:46:24;14.40;;;7.50;;
3259;SDS011;22469;48.150;14.004;2022-09-09T03:48:52;16.93;;;8.03;;
3259;SDS011;22469;48.150;14.004;2022-09-09T03:51:19;14.77;;;7.10;;
3259;SDS011;22469;48.150;14.004;2022-09-09T03:53:47;18.47;;;7.37;;
3259;SDS011;22469;48.150;14.004;2022-09-09T03:56:15;23.00;;;9.37;;
3259;SDS011;22469;48.150;14.004;2022-09-09T03:58:41;25.90;;;7.77;;
3259;SDS011;22469;48.150;14.004;2022-09-09T04:01:10;22.53;;;7.50;;
3259;SDS011;22469;48.150;14.004;2022-09-09T04:03:40;41.90;;;8.63;;
3259;SDS011;22469;48.150;14.004;2022-09-09T04:06:08;13.37;;;6.90;;
3259;SDS011;22469;48.150;14.004;2022-09-09T04:08:38;17.83;;;7.50;;
3259;SDS011;22469;48.150;14.004;2022-09-09T04:11:06;36.63;;;8.67;;
3259;SDS011;22469;48.150;14.004;2022-09-09T04:13:34;75.30;;;12.70;;
3259;SDS011;22469;48.150;14.004;2022-09-09T04:16:07;44.20;;;9.40;;
3259;SDS011;22469;48.150;14.004;2022-09-09T04:18:36;23.77;;;8.20;;
3259;SDS011;22469;48.150;14.004;2022-09-09T04:21:03;13.00;;;7.57;;
3259;SDS011;22469;48.150;14.004;2022-09-09T04:23:33;18.90;;;7.17;;
3259;SDS011;22469;48.150;14.004;2022-09-09T04:26:01;16.00;;;7.60;;
3259;SDS011;22469;48.150;14.004;2022-09-09T04:28:31;15.80;;;6.97;;
3259;SDS011;22469;48.150;14.004;2022-09-09T04:31:06;13.37;;;7.20;;
3259;SDS011;22469;48.150;14.004;2022-09-09T04:33:45;21.87;;;9.10;;
3259;SDS011;22469;48.150;14.004;2022-09-09T04:36:13;23.47;;;8.33;;
3259;SDS011;22469;48.150;14.004;2022-09-09T04:38:40;15.57;;;8.43;;
3259;SDS011;22469;48.150;14.004;2022-09-09T04:41:07;22.47;;;7.67;;
3259;SDS011;22469;48.150;14.004;2022-09-09T04:43:37;19.37;;;8.70;;
3259;SDS011;22469;48.150;14.004;2022-09-09T04:46:06;27.07;;;8.27;;
3259;SDS011;22469;48.150;14.004;2022-09-09T04:48:33;25.70;;;8.60;;
3259;SDS011;22469;48.150;14.004;2022-09-09T04:51:02;27.93;;;9.13;;
3259;SDS011;22469;48.150;14.004;2022-09-09T04:53:31;44.30;;;11.17;;
3259;SDS011;22469;48.150;14.004;2022-09-09T04:56:01;20.67;;;8.70;;
3259;SDS011;22469;48.150;14.004;2022-09-09T04:58:37;24.57;;;9.60;;
3259;SDS011;22469;48.150;14.004;2022-09-09T05:03:41;32.00;;;10.37;;
3259;SDS011;22469;48.150;14.004;2022-09-09T05:06:12;21.53;;;9.73;;
3259;SDS011;22469;48.150;14.004;2022-09-09T05:08:42;55.40;;;10.77;;
3259;SDS011;22469;48.150;14.004;2022-09-09T05:11:18;29.77;;;9.37;;
3259;SDS011;22469;48.150;14.004;2022-09-09T05:13:47;42.03;;;10.80;;
3259;SDS011;22469;48.150;14.004;2022-09-09T05:16:14;22.53;;;9.53;;
3259;SDS011;22469;48.150;14.004;2022-09-09T05:18:42;16.20;;;10.47;;
3259;SDS011;22469;48.150;14.004;2022-09-09T05:21:13;30.03;;;9.87;;
3259;SDS011;22469;48.150;14.004;2022-09-09T05:23:41;10.43;;;8.67;;
3259;SDS011;22469;48.150;14.004;2022-09-09T05:26:11;18.40;;;10.13;;
3259;SDS011;22469;48.150;14.004;2022-09-09T05:28:43;26.23;;;10.63;;
3259;SDS011;22469;48.150;14.004;2022-09-09T05:31:12;29.87;;;10.87;;
3259;SDS011;22469;48.150;14.004;2022-09-09T05:33:42;17.50;;;9.00;;
3259;SDS011;22469;48.150;14.004;2022-09-09T05:36:13;25.60;;;9.53;;
3259;SDS011;22469;48.150;14.004;2022-09-09T05:38:43;17.33;;;11.17;;
3259;SDS011;22469;48.150;14.004;2022-09-09T05:41:11;17.40;;;10.43;;
3259;SDS011;22469;48.150;14.004;2022-09-09T05:43:42;22.70;;;10.53;;
3259;SDS011;22469;48.150;14.004;2022-09-09T05:46:11;14.17;;;10.53;;
3259;SDS011;22469;48.150;14.004;2022-09-09T05:48:43;14.17;;;11.80;;
3259;SDS011;22469;48.150;14.004;2022-09-09T05:51:14;15.13;;;11.70;;
3259;SDS011;22469;48.150;14.004;2022-09-09T05:53:47;18.37;;;13.20;;
3259;SDS011;22469;48.150;14.004;2022-09-09T05:56:19;15.37;;;13.17;;
3259;SDS011;22469;48.150;14.004;2022-09-09T05:58:51;21.77;;;16.70;;
3259;SDS011;22469;48.150;14.004;2022-09-09T06:01:31;22.20;;;16.50;;
3259;SDS011;22469;48.150;14.004;2022-09-09T06:04:00;34.33;;;20.03;;
3259;SDS011;22469;48.150;14.004;2022-09-09T06:06:32;34.30;;;19.03;;
3259;SDS011;22469;48.150;14.004;2022-09-09T06:09:03;34.37;;;21.13;;
3259;SDS011;22469;48.150;14.004;2022-09-09T06:11:36;29.43;;;19.33;;
3259;SDS011;22469;48.150;14.004;2022-09-09T06:14:05;27.30;;;19.40;;
3259;SDS011;22469;48.150;14.004;2022-09-09T06:16:35;28.00;;;20.83;;
3259;SDS011;22469;48.150;14.004;2022-09-09T06:19:04;22.97;;;17.17;;
3259;SDS011;22469;48.150;14.004;2022-09-09T06:21:34;18.63;;;15.53;;
3259;SDS011;22469;48.150;14.004;2022-09-09T06:24:03;17.30;;;15.50;;
3259;SDS011;22469;48.150;14.004;2022-09-09T06:26:32;16.80;;;15.13;;
3259;SDS011;22469;48.150;14.004;2022-09-09T06:29:02;17.70;;;14.90;;
3259;SDS011;22469;48.150;14.004;2022-09-09T06:31:31;16.47;;;14.80;;
3259;SDS011;22469;48.150;14.004;2022-09-09T06:34:01;18.70;;;14.37;;
3259;SDS011;22469;48.150;14.004;2022-09-09T06:36:31;12.40;;;11.30;;
3259;SDS011;22469;48.150;14.004;2022-09-09T06:39:00;16.00;;;10.70;;
3259;SDS011;22469;48.150;14.004;2022-09-09T06:41:29;11.70;;;10.70;;
3259;SDS011;22469;48.150;14.004;2022-09-09T06:43:59;12.90;;;11.70;;
3259;SDS011;22469;48.150;14.004;2022-09-09T06:46:28;13.40;;;12.17;;
3259;SDS011;22469;48.150;14.004;2022-09-09T06:48:58;12.17;;;11.10;;
3259;SDS011;22469;48.150;14.004;2022-09-09T06:51:27;11.63;;;10.53;;
3259;SDS011;22469;48.150;14.004;2022-09-09T06:54:00;10.50;;;9.50;;
3259;SDS011;22469;48.150;14.004;2022-09-09T06:56:30;11.37;;;10.30;;
3259;SDS011;22469;48.150;14.004;2022-09-09T06:58:59;12.20;;;11.00;;
3259;SDS011;22469;48.150;14.004;2022-09-09T07:01:31;13.50;;;11.13;;
3259;SDS011;22469;48.150;14.004;2022-09-09T07:04:02;13.20;;;11.77;;
3259;SDS011;22469;48.150;14.004;2022-09-09T07:06:37;12.00;;;10.90;;
3259;SDS011;22469;48.150;14.004;2022-09-09T07:09:07;11.50;;;10.43;;
3259;SDS011;22469;48.150;14.004;2022-09-09T07:11:41;10.97;;;9.93;;
3259;SDS011;22469;48.150;14.004;2022-09-09T07:14:14;11.00;;;10.07;;
3259;SDS011;22469;48.150;14.004;2022-09-09T07:16:43;10.43;;;9.37;;
3259;SDS011;22469;48.150;14.004;2022-09-09T07:19:12;9.93;;;9.03;;
3259;SDS011;22469;48.150;14.004;2022-09-09T07:21:40;9.63;;;8.73;;
3259;SDS011;22469;48.150;14.004;2022-09-09T07:24:09;9.17;;;8.37;;
3259;SDS011;22469;48.150;14.004;2022-09-09T07:26:37;9.83;;;8.90;;
3259;SDS011;22469;48.150;14.004;2022-09-09T07:29:07;11.20;;;10.10;;
3259;SDS011;22469;48.150;14.004;2022-09-09T07:31:36;10.43;;;9.43;;
3259;SDS011;22469;48.150;14.004;2022-09-09T07:34:06;9.80;;;9.00;;
3259;SDS011;22469;48.150;14.004;2022-09-09T07:36:38;9.60;;;8.80;;
3259;SDS011;22469;48.150;14.004;2022-09-09T07:39:07;10.87;;;9.87;;
3259;SDS011;22469;48.150;14.004;2022-09-09T07:41:41;11.60;;;10.50;;
3259;SDS011;22469;48.150;14.004;2022-09-09T07:44:11;12.20;;;10.43;;
3259;SDS011;22469;48.150;14.004;2022-09-09T07:46:42;11.10;;;9.93;;
3259;SDS011;22469;48.150;14.004;2022-09-09T07:49:12;9.77;;;8.90;;
3259;SDS011;22469;48.150;14.004;2022-09-09T07:51:41;8.67;;;7.87;;
3259;SDS011;22469;48.150;14.004;2022-09-09T07:54:11;8.30;;;7.60;;
3259;SDS011;22469;48.150;14.004;2022-09-09T07:56:41;8.40;;;7.50;;
3259;SDS011;22469;48.150;14.004;2022-09-09T07:59:08;8.53;;;7.83;;
3259;SDS011;22469;48.150;14.004;2022-09-09T08:01:37;9.13;;;8.30;;
3259;SDS011;22469;48.150;14.004;2022-09-09T08:04:15;9.03;;;7.03;;
3259;SDS011;22469;48.150;14.004;2022-09-09T08:06:48;10.50;;;9.50;;
3259;SDS011;22469;48.150;14.004;2022-09-09T08:09:21;9.30;;;8.33;;
3259;SDS011;22469;48.150;14.004;2022-09-09T08:11:51;9.80;;;8.90;;
3259;SDS011;22469;48.150;14.004;2022-09-09T08:14:18;10.23;;;9.23;;
3259;SDS011;22469;48.150;14.004;2022-09-09T08:16:47;10.43;;;9.40;;
3259;SDS011;22469;48.150;14.004;2022-09-09T08:19:15;9.63;;;8.83;;
3259;SDS011;22469;48.150;14.004;2022-09-09T08:21:43;9.87;;;9.07;;
3259;SDS011;22469;48.150;14.004;2022-09-09T08:24:11;9.07;;;8.27;;
3259;SDS011;22469;48.150;14.004;2022-09-09T08:26:43;11.30;;;8.70;;
3259;SDS011;22469;48.150;14.004;2022-09-09T08:29:15;8.60;;;7.90;;
3259;SDS011;22469;48.150;14.004;2022-09-09T08:31:47;9.97;;;9.10;;
3259;SDS011;22469;48.150;14.004;2022-09-09T08:34:24;11.17;;;9.87;;
3259;SDS011;22469;48.150;14.004;2022-09-09T08:36:53;10.80;;;9.17;;
3259;SDS011;22469;48.150;14.004;2022-09-09T08:39:21;11.83;;;10.73;;
3259;SDS011;22469;48.150;14.004;2022-09-09T08:47:51;11.33;;;10.13;;
3259;SDS011;22469;48.150;14.004;2022-09-09T08:50:50;10.30;;;9.20;;
3259;SDS011;22469;48.150;14.004;2022-09-09T08:55:57;11.50;;;10.10;;
3259;SDS011;22469;48.150;14.004;2022-09-09T08:58:32;11.90;;;10.90;;
3259;SDS011;22469;48.150;14.004;2022-09-09T09:09:21;14.40;;;12.70;;
3259;SDS011;22469;48.150;14.004;2022-09-09T09:12:19;14.30;;;12.87;;
3259;SDS011;22469;48.150;14.004;2022-09-09T09:14:50;12.50;;;11.30;;
3259;SDS011;22469;48.150;14.004;2022-09-09T09:17:20;12.47;;;11.33;;
3259;SDS011;22469;48.150;14.004;2022-09-09T09:19:51;14.33;;;12.90;;
3259;SDS011;22469;48.150;14.004;2022-09-09T09:22:39;11.70;;;10.60;;
3259;SDS011;22469;48.150;14.004;2022-09-09T09:25:23;10.57;;;9.60;;
3259;SDS011;22469;48.150;14.004;2022-09-09T09:28:02;9.10;;;8.40;;
3259;SDS011;22469;48.150;14.004;2022-09-09T09:30:59;9.30;;;8.50;;
3259;SDS011;22469;48.150;14.004;2022-09-09T09:33:54;10.37;;;9.47;;
3259;SDS011;22469;48.150;14.004;2022-09-09T09:36:35;8.93;;;8.23;;
3259;SDS011;22469;48.150;14.004;2022-09-09T09:39:32;9.07;;;8.20;;
3259;SDS011;22469;48.150;14.004;2022-09-09T09:42:25;8.80;;;7.90;;
3259;SDS011;22469;48.150;14.004;2022-09-09T09:44:53;13.90;;;12.70;;
3259;SDS011;22469;48.150;14.004;2022-09-09T09:47:20;12.93;;;11.63;;
3259;SDS011;22469;48.150;14.004;2022-09-09T09:52:26;14.40;;;12.90;;
3259;SDS011;22469;48.150;14.004;2022-09-09T09:54:56;13.03;;;11.93;;
3259;SDS011;22469;48.150;14.004;2022-09-09T09:57:32;11.83;;;10.67;;
3259;SDS011;22469;48.150;14.004;2022-09-09T10:00:04;12.10;;;10.63;;
3259;SDS011;22469;48.150;14.004;2022-09-09T10:02:44;11.37;;;10.27;;
3259;SDS011;22469;48.150;14.004;2022-09-09T10:05:16;12.30;;;10.03;;
3259;SDS011;22469;48.150;14.004;2022-09-09T10:08:08;11.13;;;10.10;;
3259;SDS011;22469;48.150;14.004;2022-09-09T10:10:50;13.37;;;12.07;;
3259;SDS011;22469;48.150;14.004;2022-09-09T10:19:32;15.27;;;13.90;;
3259;SDS011;22469;48.150;14.004;2022-09-09T10:22:04;17.67;;;16.17;;
3259;SDS011;22469;48.150;14.004;2022-09-09T10:32:42;14.73;;;13.27;;
3259;SDS011;22469;48.150;14.004;2022-09-09T10:35:44;13.57;;;12.53;;
3259;SDS011;22469;48.150;14.004;2022-09-09T10:39:01;15.23;;;13.83;;
3259;SDS011;22469;48.150;14.004;2022-09-09T10:56:33;13.93;;;12.63;;
3259;SDS011;22469;48.150;14.004;2022-09-09T10:59:04;13.83;;;12.63;;
3259;SDS011;22469;48.150;14.004;2022-09-09T11:04:19;10.50;;;9.67;;
3259;SDS011;22469;48.150;14.004;2022-09-09T11:06:53;12.97;;;11.77;;
3259;SDS011;22469;48.150;14.004;2022-09-09T11:09:31;12.67;;;11.47;;
3259;SDS011;22469;48.150;14.004;2022-09-09T11:12:05;11.57;;;10.47;;
3259;SDS011;22469;48.150;14.004;2022-09-09T11:14:47;11.80;;;10.70;;
3259;SDS011;22469;48.150;14.004;2022-09-09T11:17:23;12.00;;;10.90;;
3259;SDS011;22469;48.150;14.004;2022-09-09T11:20:00;11.90;;;10.13;;
3259;SDS011;22469;48.150;14.004;2022-09-09T11:22:34;10.63;;;9.60;;
3259;SDS011;22469;48.150;14.004;2022-09-09T11:25:26;9.70;;;8.70;;
3259;SDS011;22469;48.150;14.004;2022-09-09T11:33:55;10.70;;;9.70;;
3259;SDS011;22469;48.150;14.004;2022-09-09T11:39:57;13.90;;;10.23;;
3259;SDS011;22469;48.150;14.004;2022-09-09T11:42:40;10.20;;;9.40;;
3259;SDS011;22469;48.150;14.004;2022-09-09T11:45:27;11.10;;;10.10;;
3259;SDS011;22469;48.150;14.004;2022-09-09T11:47:59;11.30;;;10.40;;
3259;SDS011;22469;48.150;14.004;2022-09-09T11:50:29;10.80;;;9.90;;
3259;SDS011;22469;48.150;14.004;2022-09-09T11:55:40;9.13;;;8.33;;
3259;SDS011;22469;48.150;14.004;2022-09-09T12:03:34;5.60;;;5.20;;
3259;SDS011;22469;48.150;14.004;2022-09-09T12:06:29;6.30;;;5.83;;
3259;SDS011;22469;48.150;14.004;2022-09-09T12:12:04;6.17;;;5.67;;
3259;SDS011;22469;48.150;14.004;2022-09-09T12:17:46;5.77;;;5.33;;
3259;SDS011;22469;48.150;14.004;2022-09-09T12:20:38;6.27;;;5.87;;
3259;SDS011;22469;48.150;14.004;2022-09-09T12:26:28;6.10;;;5.70;;
3259;SDS011;22469;48.150;14.004;2022-09-09T12:34:44;7.13;;;6.63;;
3259;SDS011;22469;48.150;14.004;2022-09-09T12:37:27;8.70;;;8.00;;
3259;SDS011;22469;48.150;14.004;2022-09-09T12:40:14;9.30;;;8.40;;
3259;SDS011;22469;48.150;14.004;2022-09-09T12:42:46;9.03;;;8.37;;
3259;SDS011;22469;48.150;14.004;2022-09-09T12:45:24;9.90;;;9.10;;
3259;SDS011;22469;48.150;14.004;2022-09-09T12:48:08;10.77;;;9.67;;
3259;SDS011;22469;48.150;14.004;2022-09-09T12:50:38;9.50;;;7.23;;
3259;SDS011;22469;48.150;14.004;2022-09-09T12:53:25;9.57;;;8.90;;
3259;SDS011;22469;48.150;14.004;2022-09-09T12:56:02;8.73;;;8.10;;
3259;SDS011;22469;48.150;14.004;2022-09-09T12:58:36;8.70;;;8.00;;
3259;SDS011;22469;48.150;14.004;2022-09-09T13:01:05;9.07;;;7.43;;
3259;SDS011;22469;48.150;14.004;2022-09-09T13:03:33;9.53;;;7.60;;
3259;SDS011;22469;48.150;14.004;2022-09-09T13:06:52;8.83;;;8.03;;
3259;SDS011;22469;48.150;14.004;2022-09-09T13:09:01;8.10;;;7.47;;
3259;SDS011;22469;48.150;14.004;2022-09-09T13:11:39;9.37;;;8.47;;
3259;SDS011;22469;48.150;14.004;2022-09-09T13:14:14;9.30;;;8.60;;
3259;SDS011;22469;48.150;14.004;2022-09-09T13:16:57;9.20;;;8.30;;
3259;SDS011;22469;48.150;14.004;2022-09-09T13:19:27;8.73;;;8.13;;
3259;SDS011;22469;48.150;14.004;2022-09-09T13:22:00;8.80;;;7.90;;
3259;SDS011;22469;48.150;14.004;2022-09-09T13:24:39;8.77;;;7.90;;
3259;SDS011;22469;48.150;14.004;2022-09-09T13:29:56;8.50;;;7.77;;
3259;SDS011;22469;48.150;14.004;2022-09-09T13:32:24;8.53;;;7.77;;
3259;SDS011;22469;48.150;14.004;2022-09-09T13:34:55;8.27;;;7.67;;
3259;SDS011;22469;48.150;14.004;2022-09-09T13:37:38;7.90;;;7.30;;
3259;SDS011;22469;48.150;14.004;2022-09-09T13:40:17;7.87;;;7.27;;
3259;SDS011;22469;48.150;14.004;2022-09-09T13:42:50;8.23;;;7.50;;
3259;SDS011;22469;48.150;14.004;2022-09-09T13:45:22;8.40;;;7.60;;
3259;SDS011;22469;48.150;14.004;2022-09-09T13:47:55;8.50;;;7.57;;
3259;SDS011;22469;48.150;14.004;2022-09-09T13:50:26;6.80;;;5.87;;
3259;SDS011;22469;48.150;14.004;2022-09-09T13:53:24;7.23;;;6.43;;
3259;SDS011;22469;48.150;14.004;2022-09-09T13:55:51;6.63;;;6.20;;
3259;SDS011;22469;48.150;14.004;2022-09-09T13:58:19;11.60;;;6.80;;
3259;SDS011;22469;48.150;14.004;2022-09-09T14:00:49;7.97;;;7.27;;
3259;SDS011;22469;48.150;14.004;2022-09-09T14:03:16;7.13;;;6.53;;
3259;SDS011;22469;48.150;14.004;2022-09-09T14:05:43;7.10;;;6.53;;
3259;SDS011;22469;48.150;14.004;2022-09-09T14:08:16;9.63;;;8.83;;
3259;SDS011;22469;48.150;14.004;2022-09-09T14:10:51;8.60;;;7.60;;
3259;SDS011;22469;48.150;14.004;2022-09-09T14:13:18;8.57;;;7.93;;
3259;SDS011;22469;48.150;14.004;2022-09-09T14:15:47;9.60;;;8.57;;
3259;SDS011;22469;48.150;14.004;2022-09-09T14:18:15;10.67;;;9.70;;
3259;SDS011;22469;48.150;14.004;2022-09-09T14:20:42;8.97;;;8.27;;
3259;SDS011;22469;48.150;14.004;2022-09-09T14:23:11;8.63;;;7.90;;
3259;SDS011;22469;48.150;14.004;2022-09-09T14:25:44;9.60;;;8.80;;
3259;SDS011;22469;48.150;14.004;2022-09-09T14:28:13;8.90;;;7.77;;
3259;SDS011;22469;48.150;14.004;2022-09-09T14:30:41;12.70;;;11.43;;
3259;SDS011;22469;48.150;14.004;2022-09-09T14:33:11;16.17;;;12.17;;
3259;SDS011;22469;48.150;14.004;2022-09-09T14:35:41;18.43;;;14.30;;
3259;SDS011;22469;48.150;14.004;2022-09-09T14:38:10;16.87;;;12.23;;
3259;SDS011;22469;48.150;14.004;2022-09-09T14:40:44;12.90;;;10.97;;
3259;SDS011;22469;48.150;14.004;2022-09-09T14:43:13;12.80;;;10.10;;
3259;SDS011;22469;48.150;14.004;2022-09-09T14:45:40;11.73;;;10.70;;
3259;SDS011;22469;48.150;14.004;2022-09-09T14:48:07;12.73;;;11.53;;
3259;SDS011;22469;48.150;14.004;2022-09-09T14:50:34;11.83;;;10.80;;
3259;SDS011;22469;48.150;14.004;2022-09-09T14:53:06;11.57;;;10.77;;
3259;SDS011;22469;48.150;14.004;2022-09-09T14:55:35;10.27;;;9.47;;
3259;SDS011;22469;48.150;14.004;2022-09-09T14:58:03;10.23;;;9.43;;
3259;SDS011;22469;48.150;14.004;2022-09-09T15:00:32;9.90;;;8.90;;
3259;SDS011;22469;48.150;14.004;2022-09-09T15:02:59;9.50;;;8.70;;
3259;SDS011;22469;48.150;14.004;2022-09-09T15:05:26;9.80;;;9.00;;
3259;SDS011;22469;48.150;14.004;2022-09-09T15:07:54;8.80;;;8.10;;
3259;SDS011;22469;48.150;14.004;2022-09-09T15:10:21;8.60;;;7.90;;
3259;SDS011;22469;48.150;14.004;2022-09-09T15:12:48;8.73;;;8.17;;
3259;SDS011;22469;48.150;14.004;2022-09-09T15:15:15;8.00;;;7.40;;
3259;SDS011;22469;48.150;14.004;2022-09-09T15:17:42;8.50;;;7.80;;
3259;SDS011;22469;48.150;14.004;2022-09-09T15:20:09;8.87;;;8.27;;
3259;SDS011;22469;48.150;14.004;2022-09-09T15:22:36;8.83;;;8.10;;
3259;SDS011;22469;48.150;14.004;2022-09-09T15:25:04;7.83;;;7.33;;
3259;SDS011;22469;48.150;14.004;2022-09-09T15:27:32;8.00;;;7.33;;
3259;SDS011;22469;48.150;14.004;2022-09-09T15:30:00;8.20;;;7.70;;
3259;SDS011;22469;48.150;14.004;2022-09-09T15:32:27;8.07;;;7.57;;
3259;SDS011;22469;48.150;14.004;2022-09-09T15:34:54;9.10;;;8.20;;
3259;SDS011;22469;48.150;14.004;2022-09-09T15:37:21;8.20;;;7.60;;
3259;SDS011;22469;48.150;14.004;2022-09-09T15:39:48;9.03;;;7.87;;
3259;SDS011;22469;48.150;14.004;2022-09-09T15:42:16;10.00;;;8.40;;
3259;SDS011;22469;48.150;14.004;2022-09-09T15:44:43;8.50;;;7.90;;
3259;SDS011;22469;48.150;14.004;2022-09-09T15:47:11;9.90;;;9.17;;
3259;SDS011;22469;48.150;14.004;2022-09-09T15:49:42;9.03;;;8.33;;
3259;SDS011;22469;48.150;14.004;2022-09-09T15:52:10;9.00;;;7.97;;
3259;SDS011;22469;48.150;14.004;2022-09-09T15:54:37;9.93;;;9.00;;
3259;SDS011;22469;48.150;14.004;2022-09-09T15:57:06;8.43;;;7.70;;
3259;SDS011;22469;48.150;14.004;2022-09-09T15:59:36;10.10;;;9.20;;
3259;SDS011;22469;48.150;14.004;2022-09-09T16:02:03;8.83;;;8.13;;
3259;SDS011;22469;48.150;14.004;2022-09-09T16:04:31;9.20;;;8.40;;
3259;SDS011;22469;48.150;14.004;2022-09-09T16:07:04;10.30;;;9.50;;
3259;SDS011;22469;48.150;14.004;2022-09-09T16:09:32;9.00;;;8.30;;
3259;SDS011;22469;48.150;14.004;2022-09-09T16:12:02;11.70;;;8.80;;
3259;SDS011;22469;48.150;14.004;2022-09-09T16:14:34;9.10;;;8.40;;
3259;SDS011;22469;48.150;14.004;2022-09-09T16:17:02;10.20;;;9.27;;
3259;SDS011;22469;48.150;14.004;2022-09-09T16:19:32;9.70;;;9.00;;
3259;SDS011;22469;48.150;14.004;2022-09-09T16:21:59;10.40;;;9.50;;
3259;SDS011;22469;48.150;14.004;2022-09-09T16:24:26;8.83;;;8.17;;
3259;SDS011;22469;48.150;14.004;2022-09-09T16:26:53;10.00;;;9.20;;
3259;SDS011;22469;48.150;14.004;2022-09-09T16:29:21;10.00;;;9.30;;
3259;SDS011;22469;48.150;14.004;2022-09-09T16:31:50;10.73;;;9.97;;
3259;SDS011;22469;48.150;14.004;2022-09-09T16:34:18;11.00;;;9.90;;
3259;SDS011;22469;48.150;14.004;2022-09-09T16:36:46;12.60;;;11.50;;
3259;SDS011;22469;48.150;14.004;2022-09-09T16:39:16;11.43;;;10.43;;
3259;SDS011;22469;48.150;14.004;2022-09-09T16:41:45;11.30;;;10.20;;
3259;SDS011;22469;48.150;14.004;2022-09-09T16:44:15;11.97;;;10.73;;
3259;SDS011;22469;48.150;14.004;2022-09-09T16:46:46;12.27;;;11.20;;
3259;SDS011;22469;48.150;14.004;2022-09-09T16:49:25;11.63;;;10.53;;
3259;SDS011;22469;48.150;14.004;2022-09-09T16:51:56;14.17;;;12.60;;
3259;SDS011;22469;48.150;14.004;2022-09-09T16:54:25;13.53;;;12.13;;
3259;SDS011;22469;48.150;14.004;2022-09-09T16:56:53;13.40;;;12.10;;
3259;SDS011;22469;48.150;14.004;2022-09-09T16:59:21;12.13;;;11.13;;
3259;SDS011;22469;48.150;14.004;2022-09-09T17:01:50;13.17;;;12.07;;
3259;SDS011;22469;48.150;14.004;2022-09-09T17:04:20;13.37;;;12.17;;
3259;SDS011;22469;48.150;14.004;2022-09-09T17:06:52;13.27;;;12.07;;
3259;SDS011;22469;48.150;14.004;2022-09-09T17:09:22;13.67;;;12.37;;
3259;SDS011;22469;48.150;14.004;2022-09-09T17:11:50;12.37;;;11.33;;
3259;SDS011;22469;48.150;14.004;2022-09-09T17:14:19;13.03;;;11.80;;
3259;SDS011;22469;48.150;14.004;2022-09-09T17:16:48;17.17;;;12.70;;
3259;SDS011;22469;48.150;14.004;2022-09-09T17:19:15;12.50;;;11.47;;
3259;SDS011;22469;48.150;14.004;2022-09-09T17:21:42;18.63;;;12.97;;
3259;SDS011;22469;48.150;14.004;2022-09-09T17:24:30;14.17;;;12.77;;
3259;SDS011;22469;48.150;14.004;2022-09-09T17:26:57;14.77;;;13.37;;
3259;SDS011;22469;48.150;14.004;2022-09-09T17:29:24;13.37;;;12.23;;